Time;durP1;ratioP1;P1;durP2;ratioP2;P2;SDS_P1;SDS_P2;PMS_P1;PMS_P2;Temp;Humidity;BMP_temperature;BMP_pressure;BME280_temperature;BME280_humidity;BME280_pressure;Samples;Min_cycle;Max_cycle;Signal;HPM_P1;HPM_P2
2023/01/17 00:01:32;;;;;;;10.60;7.40;;;;;;;4.29;80.56;97226.45;105589;1254;75987;-24
2023/01/17 00:12:19;;;;;;;8.90;4.90;;;;;;;4.06;80.84;97222.59;105618;1259;62780;-24
2023/01/17 00:14:47;;;;;;;8.70;5.10;;;;;;;4.35;80.52;97224.24;105686;1259;76736;-25
2023/01/17 00:17:14;;;;;;;11.20;6.80;;;;;;;4.59;79.44;97220.31;105639;1253;75579;-24
2023/01/17 01:35:52;;;;;;;9.70;6.30;;;;;;;4.62;79.24;97156.77;105643;1253;76088;-24
2023/01/17 01:38:21;;;;;;;8.20;5.40;;;;;;;4.44;79.54;97160.44;105635;1253;76496;-24
2023/01/17 01:40:50;;;;;;;10.00;6.80;;;;;;;4.23;80.56;97155.86;105714;1259;75432;-24
2023/01/17 01:43:20;;;;;;;15.20;6.60;;;;;;;4.41;80.60;97158.83;105647;1253;62578;-24
2023/01/17 01:45:54;;;;;;;9.10;6.20;;;;;;;4.69;79.81;97150.00;105703;1260;62884;-24
2023/01/17 01:48:30;;;;;;;10.80;7.00;;;;;;;4.63;79.34;97153.48;105650;1261;74252;-24
2023/01/17 01:50:57;;;;;;;13.90;8.70;;;;;;;4.43;79.92;97154.84;105586;1254;76492;-24
2023/01/17 01:53:24;;;;;;;9.70;6.60;;;;;;;4.25;80.61;97150.02;105561;1258;75187;-24
2023/01/17 01:55:51;;;;;;;10.60;6.90;;;;;;;4.44;80.63;97152.35;105572;1259;61887;-24
2023/01/17 01:58:21;;;;;;;11.10;7.00;;;;;;;4.66;79.60;97142.39;105730;1257;62568;-24
2023/01/17 02:00:48;;;;;;;12.00;7.20;;;;;;;4.61;79.32;97136.09;105660;1260;74966;-24
2023/01/17 02:03:20;;;;;;;10.40;7.00;;;;;;;4.41;79.87;97132.88;105575;1254;76554;-24
2023/01/17 02:05:47;;;;;;;8.80;6.20;;;;;;;4.21;80.66;97133.40;105628;1254;74284;-24
2023/01/17 02:08:16;;;;;;;10.40;6.20;;;;;;;4.46;80.55;97139.83;105667;1259;61543;-24
2023/01/17 02:10:43;;;;;;;10.80;6.80;;;;;;;4.77;79.26;97134.40;105480;1253;61704;-24
2023/01/17 02:13:11;;;;;;;9.00;5.50;;;;;;;4.74;78.80;97139.95;105817;1257;76075;-24
2023/01/17 02:16:00;;;;;;;9.20;7.10;;;;;;;4.57;79.13;97138.02;105682;1253;76567;-24
2023/01/17 02:18:35;;;;;;;6.60;5.00;;;;;;;4.29;80.17;97134.39;105634;1253;74305;-25
2023/01/17 02:21:14;;;;;;;10.70;7.20;;;;;;;4.47;80.19;97136.84;105639;1259;61693;-25
2023/01/17 02:24:10;;;;;;;11.30;6.40;;;;;;;4.70;79.15;97136.89;105643;1259;62913;-25
2023/01/17 02:26:58;;;;;;;10.80;7.20;;;;;;;4.66;79.06;97133.48;105600;1257;74943;-25
2023/01/17 02:29:44;;;;;;;9.60;6.00;;;;;;;4.45;79.41;97132.71;105319;1262;76986;-25
2023/01/17 02:32:27;;;;;;;10.90;6.80;;;;;;;4.31;80.51;97125.60;105536;1257;75355;-25
2023/01/17 02:35:01;;;;;;;8.50;6.50;;;;;;;4.72;79.20;97119.70;105636;1255;62417;-24
2023/01/17 02:37:49;;;;;;;12.50;6.60;;;;;;;4.77;78.59;97116.21;105547;1253;61836;-25
2023/01/17 02:40:21;;;;;;;11.50;6.40;;;;;;;4.58;78.78;97116.29;105666;1254;76166;-25
2023/01/17 02:42:59;;;;;;;8.00;5.60;;;;;;;4.36;79.48;97112.02;105623;1259;74931;-25
2023/01/17 02:45:26;;;;;;;9.00;6.10;;;;;;;4.37;80.09;97120.86;105646;1254;74200;-25
2023/01/17 02:47:53;;;;;;;12.40;7.20;;;;;;;4.73;79.01;97112.88;105730;1254;62930;-25
2023/01/17 02:50:22;;;;;;;10.30;7.70;;;;;;;4.77;78.34;97110.48;105610;1255;62399;-25
2023/01/17 02:53:05;;;;;;;12.60;7.80;;;;;;;4.62;78.61;97113.39;105702;1254;74316;-25
2023/01/17 02:56:03;;;;;;;14.50;6.30;;;;;;;4.40;79.30;97116.62;105521;1259;76037;-25
2023/01/17 02:58:42;;;;;;;6.00;5.10;;;;;;;4.33;80.11;97114.67;105621;1253;75466;-24
2023/01/17 03:01:48;;;;;;;7.50;5.30;;;;;;;4.79;78.71;97103.77;105415;1257;62856;-25
2023/01/17 03:04:42;;;;;;;11.60;7.60;;;;;;;4.83;77.66;97101.05;105421;1255;62216;-25
2023/01/17 03:07:15;;;;;;;12.40;7.40;;;;;;;4.57;78.45;97097.83;105565;1254;75989;-23
2023/01/17 03:09:47;;;;;;;11.60;6.90;;;;;;;4.30;79.33;97093.93;105586;1259;75108;-25
2023/01/17 03:12:13;;;;;;;7.30;4.80;;;;;;;4.30;79.92;97102.33;105555;1254;75312;-24
2023/01/17 03:14:41;;;;;;;8.50;5.90;;;;;;;4.63;78.90;97108.41;104325;1257;1611213;-24
2023/01/17 03:17:07;;;;;;;13.70;7.00;;;;;;;4.65;78.57;97095.93;105583;1255;61439;-24
2023/01/17 03:19:35;;;;;;;11.50;6.80;;;;;;;4.50;78.78;97099.28;105643;1253;76059;-24
2023/01/17 03:22:02;;;;;;;10.70;5.80;;;;;;;4.32;79.38;97099.79;105627;1259;75785;-24
2023/01/17 03:24:29;;;;;;;9.60;6.10;;;;;;;4.30;79.92;97104.42;105539;1259;75268;-24
2023/01/17 03:26:56;;;;;;;7.60;6.00;;;;;;;4.73;78.82;97099.89;105560;1254;62859;-24
2023/01/17 03:29:23;;;;;;;10.30;6.90;;;;;;;4.83;78.00;97086.54;105520;1260;63012;-24
2023/01/17 03:31:49;;;;;;;8.80;6.50;;;;;;;4.69;77.88;97079.58;105789;1254;74858;-24
2023/01/17 03:34:16;;;;;;;9.90;7.10;;;;;;;4.43;78.58;97080.08;105627;1254;76371;-24
2023/01/17 03:36:43;;;;;;;10.10;6.90;;;;;;;4.22;79.46;97081.90;105766;1259;74096;-24
2023/01/17 03:39:10;;;;;;;9.20;5.40;;;;;;;4.39;79.68;97085.64;105653;1259;62308;-24
2023/01/17 03:41:37;;;;;;;11.30;7.00;;;;;;;4.73;78.52;97095.14;105795;1253;61902;-24
2023/01/17 03:44:04;;;;;;;20.20;8.40;;;;;;;4.69;78.23;97099.13;105602;1254;75263;-24
2023/01/17 03:46:31;;;;;;;10.80;6.20;;;;;;;4.49;78.77;97101.89;105475;1253;76365;-24
2023/01/17 03:48:58;;;;;;;9.10;6.20;;;;;;;4.27;79.80;97096.80;105468;1254;72972;-24
2023/01/17 03:51:25;;;;;;;6.30;4.90;;;;;;;4.40;79.89;97092.61;105665;1254;61803;-24
2023/01/17 03:53:52;;;;;;;13.10;8.10;;;;;;;4.67;78.75;97094.38;105811;1254;63155;-24
2023/01/17 03:56:19;;;;;;;10.90;7.40;;;;;;;4.63;78.50;97095.52;105628;1254;76293;-24
2023/01/17 03:58:46;;;;;;;18.00;8.50;;;;;;;4.46;79.15;97091.39;105755;1253;76908;-24
2023/01/17 04:01:13;;;;;;;8.50;5.00;;;;;;;4.26;79.95;97082.45;105767;1253;75508;-24
2023/01/17 04:03:40;;;;;;;11.80;7.90;;;;;;;4.48;79.67;97079.52;105635;1259;61958;-24
2023/01/17 04:06:07;;;;;;;14.10;7.80;;;;;;;4.76;78.62;97077.27;105613;1259;62303;-24
2023/01/17 04:08:34;;;;;;;11.10;7.20;;;;;;;4.70;78.24;97074.84;105643;1254;76223;-24
2023/01/17 04:11:01;;;;;;;10.90;8.10;;;;;;;4.50;78.58;97070.59;105646;1259;76805;-24
2023/01/17 04:13:28;;;;;;;11.10;6.90;;;;;;;4.22;79.62;97066.48;105649;1257;74807;-24
2023/01/17 04:15:55;;;;;;;15.50;8.40;;;;;;;4.21;80.29;97064.67;105626;1259;63394;-24
2023/01/17 04:18:23;;;;;;;12.90;7.50;;;;;;;4.57;78.87;97067.59;105635;1254;62818;-24
2023/01/17 04:20:50;;;;;;;16.60;9.70;;;;;;;4.58;78.27;97066.08;105685;1259;75193;-24
2023/01/17 04:23:17;;;;;;;9.00;6.40;;;;;;;4.37;78.67;97073.62;105777;1254;75795;-24
2023/01/17 04:25:44;;;;;;;14.20;9.10;;;;;;;4.09;79.43;97069.27;105784;1254;75222;-24
2023/01/17 04:28:11;;;;;;;11.80;8.00;;;;;;;3.87;80.60;97069.30;105830;1255;61202;-24
2023/01/17 04:30:38;;;;;;;11.20;7.90;;;;;;;4.09;80.70;97077.89;105663;1259;62774;-24
2023/01/17 04:33:05;;;;;;;17.50;8.10;;;;;;;4.35;79.54;97082.88;105616;1254;76279;-25
2023/01/17 04:35:32;;;;;;;12.70;8.00;;;;;;;4.31;79.16;97083.05;105494;1262;75588;-24
2023/01/17 04:37:59;;;;;;;10.20;6.10;;;;;;;4.12;80.06;97085.54;105374;1260;75391;-25
2023/01/17 04:40:28;;;;;;;9.60;6.60;;;;;;;3.95;80.60;97091.25;105508;1257;61035;-24
2023/01/17 04:42:56;;;;;;;20.10;7.10;;;;;;;4.00;81.12;97100.96;105440;1259;61811;-24
2023/01/17 04:45:23;;;;;;;11.70;7.40;;;;;;;4.46;79.86;97097.06;105625;1259;75205;-24
2023/01/17 04:47:50;;;;;;;10.50;6.50;;;;;;;4.59;78.96;97099.98;105620;1253;76813;-24
2023/01/17 04:50:17;;;;;;;11.80;8.10;;;;;;;4.44;79.18;97103.04;105653;1259;75184;-24
2023/01/17 04:52:44;;;;;;;13.40;7.90;;;;;;;4.25;79.64;97106.41;105620;1259;61981;-24
2023/01/17 04:55:11;;;;;;;9.20;5.50;;;;;;;4.03;80.54;97107.59;105835;1254;61915;-24
2023/01/17 04:57:38;;;;;;;10.00;5.70;;;;;;;4.27;80.62;97112.20;105682;1253;76437;-24
2023/01/17 05:00:06;;;;;;;11.60;6.90;;;;;;;4.64;79.17;97108.17;105329;1259;77181;-24
2023/01/17 05:02:33;;;;;;;9.50;7.10;;;;;;;4.63;78.60;97106.92;105371;1254;75206;-24
2023/01/17 05:05:00;;;;;;;13.00;8.20;;;;;;;4.46;79.07;97111.30;105377;1258;62526;-24
2023/01/17 05:07:27;;;;;;;9.70;7.10;;;;;;;4.24;79.76;97107.52;105781;1256;62711;-24
2023/01/17 05:09:54;;;;;;;11.90;7.80;;;;;;;4.13;80.78;97100.92;105782;1259;76447;-24
2023/01/17 05:12:21;;;;;;;10.20;7.30;;;;;;;4.50;79.98;97102.02;105816;1259;76112;-24
2023/01/17 05:14:48;;;;;;;12.60;6.90;;;;;;;4.67;78.81;97104.02;105662;1257;73949;-25
2023/01/17 05:17:14;;;;;;;12.00;6.40;;;;;;;4.53;79.01;97093.98;105500;1254;61119;-24
2023/01/17 05:19:41;;;;;;;12.60;7.40;;;;;;;4.31;79.86;97090.98;105472;1259;62627;-24
2023/01/17 05:22:15;;;;;;;11.60;6.70;;;;;;;4.15;80.64;97099.73;105570;1259;76950;-24
2023/01/17 05:24:45;;;;;;;;;;;;;;;4.45;80.25;97106.54;105660;1262;76888;-25
2023/01/17 05:27:13;;;;;;;11.00;7.50;;;;;;;4.67;78.95;97110.02;105644;1255;72903;-25
2023/01/17 05:29:40;;;;;;;13.50;7.40;;;;;;;4.58;79.04;97112.83;105637;1260;61914;-24
2023/01/17 05:32:07;;;;;;;11.40;7.50;;;;;;;4.34;79.44;97099.25;105827;1253;61233;-24
2023/01/17 05:34:34;;;;;;;9.30;6.60;;;;;;;4.11;80.65;97102.48;105480;1254;75131;-24
2023/01/17 05:37:01;;;;;;;12.30;6.40;;;;;;;4.35;80.38;97108.25;105543;1254;75788;-24
2023/01/17 05:39:29;;;;;;;12.60;7.30;;;;;;;4.57;79.24;97107.09;105799;1254;74979;-24
2023/01/17 05:41:58;;;;;;;14.70;8.50;;;;;;;4.50;79.15;97107.18;105820;1260;63110;-25
2023/01/17 05:44:26;;;;;;;11.80;7.60;;;;;;;4.29;79.90;97110.02;105589;1255;62750;-24
2023/01/17 05:46:54;;;;;;;9.90;6.90;;;;;;;4.10;80.87;97103.57;105687;1254;76123;-24
2023/01/17 05:49:21;;;;;;;9.70;6.80;;;;;;;4.32;80.65;97108.58;105509;1259;76843;-24
2023/01/17 05:51:48;;;;;;;10.00;7.20;;;;;;;4.62;79.61;97110.42;105636;1260;74334;-24
2023/01/17 05:54:15;;;;;;;10.20;7.80;;;;;;;4.58;79.24;97115.23;105619;1254;61497;-24
2023/01/17 05:56:42;;;;;;;12.10;8.70;;;;;;;4.40;79.67;97121.75;105248;1260;62825;-24
2023/01/17 05:59:09;;;;;;;13.60;8.20;;;;;;;4.18;80.49;97121.62;105632;1259;76300;-24
2023/01/17 06:01:39;;;;;;;12.00;6.80;;;;;;;4.30;80.68;97122.11;105467;1262;77188;-24
2023/01/17 06:04:06;;;;;;;11.60;6.90;;;;;;;4.66;79.58;97102.20;105692;1257;74115;-24
2023/01/17 06:06:33;;;;;;;12.20;7.90;;;;;;;4.66;78.74;97096.50;105695;1260;61775;-24
2023/01/17 06:09:00;;;;;;;12.50;8.00;;;;;;;4.47;79.25;97096.45;105550;1254;63114;-24
2023/01/17 06:11:27;;;;;;;13.30;8.60;;;;;;;4.23;79.93;97101.10;105424;1254;76323;-24
2023/01/17 06:13:54;;;;;;;11.40;7.70;;;;;;;4.05;80.72;97106.05;105412;1253;75500;-24
2023/01/17 06:16:21;;;;;;;12.60;8.00;;;;;;;4.34;80.60;97107.16;105619;1259;75101;-24
2023/01/17 06:18:48;;;;;;;9.40;6.80;;;;;;;4.60;79.40;97111.11;105781;1255;62876;-24
2023/01/17 06:21:15;;;;;;;12.90;7.70;;;;;;;4.55;79.20;97111.39;105816;1258;62517;-24
2023/01/17 06:23:42;;;;;;;14.80;8.20;;;;;;;4.33;79.49;97106.55;105515;1259;76166;-24
2023/01/17 06:26:09;;;;;;;14.50;7.80;;;;;;;4.14;80.39;97120.07;105466;1260;75703;-25
2023/01/17 06:28:36;;;;;;;15.40;8.40;;;;;;;4.22;80.82;97110.45;105537;1259;75462;-24
2023/01/17 06:31:07;;;;;;;12.40;8.30;;;;;;;4.57;79.49;97106.20;105417;1259;62526;-24
2023/01/17 06:33:34;;;;;;;10.80;5.90;;;;;;;4.63;79.01;97106.73;105433;1254;62506;-24
2023/01/17 06:36:01;;;;;;;11.60;8.40;;;;;;;4.48;79.21;97098.36;105628;1259;76377;-25
2023/01/17 06:38:28;;;;;;;13.70;8.70;;;;;;;4.28;79.78;97105.30;105366;1269;77253;-23
2023/01/17 06:40:59;;;;;;;9.50;6.10;;;;;;;4.19;80.57;97107.05;105463;1257;74801;-26
2023/01/17 06:43:27;;;;;;;13.20;7.70;;;;;;;4.67;79.60;97106.57;105487;1260;61816;-23
2023/01/17 06:45:54;;;;;;;8.10;6.00;;;;;;;4.90;78.15;97106.56;105517;1260;63170;-23
2023/01/17 06:48:21;;;;;;;14.40;8.70;;;;;;;4.78;78.19;97105.09;105590;1254;76412;-23
2023/01/17 06:50:48;;;;;;;9.40;6.40;;;;;;;4.61;78.79;97103.64;105702;1258;76728;-23
2023/01/17 06:53:15;;;;;;;11.50;7.40;;;;;;;4.36;79.53;97100.61;105631;1260;75133;-24
2023/01/17 06:55:42;;;;;;;11.40;6.30;;;;;;;4.33;80.07;97111.53;105661;1257;63754;-24
2023/01/17 06:58:09;;;;;;;13.00;8.40;;;;;;;4.78;79.11;97110.56;105818;1256;61701;-24
2023/01/17 07:00:36;;;;;;;9.80;7.20;;;;;;;4.94;78.13;97112.96;105623;1260;76233;-24
2023/01/17 07:03:13;;;;;;;15.00;8.70;;;;;;;4.80;78.08;97110.05;105549;1259;76848;-24
2023/01/17 07:05:40;;;;;;;16.30;8.80;;;;;;;4.57;78.76;97117.05;105537;1270;75220;-24
2023/01/17 07:08:07;;;;;;;10.20;7.10;;;;;;;4.37;79.45;97115.20;105785;1260;61689;-24
2023/01/17 07:10:34;;;;;;;11.00;5.80;;;;;;;4.44;79.91;97109.75;105812;1254;61429;-24
2023/01/17 07:13:01;;;;;;;12.20;8.20;;;;;;;4.86;78.49;97112.10;105626;1254;76332;-24
2023/01/17 07:15:28;;;;;;;15.10;8.40;;;;;;;4.86;78.00;97112.23;105511;1259;76693;-24
2023/01/17 07:17:55;;;;;;;16.60;10.40;;;;;;;4.74;77.99;97112.63;105795;1259;73877;-24
2023/01/17 07:20:22;;;;;;;12.70;7.00;;;;;;;4.52;78.84;97110.92;105801;1259;63155;-24
2023/01/17 07:22:49;;;;;;;13.70;6.80;;;;;;;4.34;79.44;97119.09;105772;1256;61694;-24
2023/01/17 07:25:16;;;;;;;9.70;6.60;;;;;;;4.51;79.53;97129.73;105775;1259;76130;-24
2023/01/17 07:27:43;;;;;;;13.90;6.90;;;;;;;4.87;78.21;97127.82;105597;1259;76828;-24
2023/01/17 07:30:11;;;;;;;13.30;7.50;;;;;;;4.88;77.65;97129.67;105692;1254;74985;-25
2023/01/17 07:32:38;;;;;;;14.40;8.60;;;;;;;4.71;78.11;97123.59;105547;1259;61544;-24
2023/01/17 07:35:05;;;;;;;13.40;8.30;;;;;;;4.51;78.63;97116.00;105612;1256;62526;-24
2023/01/17 07:37:32;;;;;;;9.60;6.40;;;;;;;4.42;79.20;97115.98;105608;1254;76164;-24
2023/01/17 07:40:01;;;;;;;13.70;7.90;;;;;;;4.77;78.56;97115.96;105501;1258;76486;-24
2023/01/17 07:42:28;;;;;;;18.40;8.70;;;;;;;4.93;77.68;97110.27;105576;1260;75208;-24
2023/01/17 07:44:55;;;;;;;15.20;9.70;;;;;;;4.84;77.68;97107.33;105381;1263;62684;-24
2023/01/17 07:47:23;;;;;;;15.40;9.40;;;;;;;4.64;78.01;97110.27;105730;1260;62668;-24
2023/01/17 07:49:50;;;;;;;12.80;7.70;;;;;;;4.45;78.81;97105.02;105378;1259;75240;-24
2023/01/17 07:52:17;;;;;;;13.30;7.20;;;;;;;4.63;79.04;97113.73;105241;1259;75881;-25
2023/01/17 07:54:44;;;;;;;12.50;7.00;;;;;;;4.99;77.78;97112.17;105510;1259;74218;-24
2023/01/17 07:57:11;;;;;;;12.70;9.30;;;;;;;5.02;77.25;97116.71;105797;1258;61835;-24
2023/01/17 07:59:38;;;;;;;12.30;7.80;;;;;;;4.93;77.72;97111.36;105591;1260;61163;-24
2023/01/17 08:02:09;;;;;;;12.80;8.20;;;;;;;4.76;77.98;97114.50;105576;1253;76118;-24
2023/01/17 08:04:36;;;;;;;11.90;8.10;;;;;;;4.72;78.69;97114.42;105431;1255;76492;-25
2023/01/17 08:07:03;;;;;;;12.90;8.30;;;;;;;5.16;77.67;97109.06;105570;1260;74154;-23
2023/01/17 08:09:30;;;;;;;18.00;9.60;;;;;;;5.35;76.24;97110.51;105582;1260;62894;-23
2023/01/17 08:11:57;;;;;;;18.90;12.20;;;;;;;5.24;76.22;97108.57;105604;1259;61774;-25
2023/01/17 08:14:24;;;;;;;18.10;9.70;;;;;;;5.01;76.64;97101.31;105537;1258;76363;-24
2023/01/17 08:16:52;;;;;;;13.40;7.20;;;;;;;4.80;77.36;97101.41;105670;1260;76822;-24
2023/01/17 08:19:19;;;;;;;12.80;8.80;;;;;;;4.75;78.09;97094.20;105578;1257;75252;-24
2023/01/17 08:21:46;;;;;;;10.40;7.00;;;;;;;5.13;77.18;97093.02;105799;1259;61789;-24
2023/01/17 08:24:13;;;;;;;13.80;9.70;;;;;;;5.25;76.24;97089.44;105665;1260;62600;-24
2023/01/17 08:26:40;;;;;;;13.10;8.20;;;;;;;5.15;76.43;97090.13;105609;1260;76086;-24
2023/01/17 08:29:07;;;;;;;12.20;8.20;;;;;;;4.91;76.89;97093.29;105622;1259;76715;-24
2023/01/17 08:31:35;;;;;;;11.00;7.50;;;;;;;4.73;77.62;97084.75;105363;1260;74914;-24
2023/01/17 08:34:02;;;;;;;12.90;8.30;;;;;;;4.88;77.98;97090.47;105416;1260;62575;-24
2023/01/17 08:36:30;;;;;;;10.70;7.60;;;;;;;5.26;76.39;97087.58;105613;1260;62784;-24
2023/01/17 08:38:57;;;;;;;10.90;7.30;;;;;;;5.31;75.70;97088.66;105705;1261;76421;-25
2023/01/17 08:41:26;;;;;;;13.60;7.00;;;;;;;5.22;75.91;97091.56;105619;1257;76430;-24
2023/01/17 08:43:53;;;;;;;14.20;9.10;;;;;;;5.03;76.44;97102.05;105479;1257;74873;-24
2023/01/17 08:46:21;;;;;;;13.90;8.20;;;;;;;4.85;77.04;97106.70;105504;1260;61167;-24
2023/01/17 08:48:52;;;;;;;14.50;8.80;;;;;;;5.00;77.38;97106.41;105573;1268;62997;-24
2023/01/17 08:51:19;;;;;;;12.20;8.60;;;;;;;5.42;76.20;97095.04;105660;1263;74980;-24
2023/01/17 08:53:47;;;;;;;13.60;8.40;;;;;;;5.47;75.53;97082.77;105635;1259;76979;-25
2023/01/17 08:56:14;;;;;;;14.20;8.10;;;;;;;5.33;75.85;97079.86;105852;1257;74117;-24
2023/01/17 08:58:41;;;;;;;12.00;7.30;;;;;;;5.22;76.14;97077.83;105667;1256;62449;-25
2023/01/17 09:01:08;;;;;;;13.80;7.80;;;;;;;5.16;76.55;97092.79;105693;1255;61477;-25
2023/01/17 09:03:35;;;;;;;17.30;8.60;;;;;;;5.40;76.57;97094.33;105363;1261;75343;-24
2023/01/17 09:06:11;;;;;;;12.30;7.70;;;;;;;5.83;75.19;97094.83;105434;1259;76792;-25
2023/01/17 09:08:38;;;;;;;13.80;8.90;;;;;;;5.87;74.79;97093.36;105499;1256;75037;-25
2023/01/17 09:11:06;;;;;;;13.30;8.40;;;;;;;5.78;74.92;97080.58;105572;1259;62542;-25
2023/01/17 09:13:34;;;;;;;15.30;9.20;;;;;;;5.65;75.40;97079.36;105412;1261;62821;-24
2023/01/17 09:16:01;;;;;;;11.90;8.00;;;;;;;5.54;75.77;97079.38;105382;1255;75749;-24
2023/01/17 09:18:28;;;;;;;19.20;11.20;;;;;;;5.74;75.05;97069.07;105415;1262;76860;-25
2023/01/17 09:20:57;;;;;;;13.30;8.70;;;;;;;6.00;74.09;97070.44;105609;1254;75186;-25
2023/01/17 09:23:26;;;;;;;8.50;5.60;;;;;;;5.97;74.11;97062.34;105692;1259;62747;-25
2023/01/17 09:25:57;;;;;;;17.70;8.80;;;;;;;5.83;74.38;97057.25;105540;1261;62730;-25
2023/01/17 09:28:24;;;;;;;13.40;8.50;;;;;;;5.67;74.90;97056.30;105591;1254;76399;-25
2023/01/17 09:30:52;;;;;;;12.20;8.40;;;;;;;5.56;75.29;97047.20;105654;1259;76635;-25
2023/01/17 09:33:19;;;;;;;15.40;9.30;;;;;;;5.60;75.57;97043.14;105603;1257;75409;-25
2023/01/17 09:35:46;;;;;;;13.00;8.60;;;;;;;5.95;74.37;97035.69;105483;1257;62730;-25
2023/01/17 09:38:13;;;;;;;18.00;11.00;;;;;;;6.02;73.74;97032.23;105700;1260;62722;-25
2023/01/17 09:40:43;;;;;;;15.20;8.50;;;;;;;5.91;74.29;97040.83;105563;1259;76116;-25
2023/01/17 09:43:22;;;;;;;14.40;10.20;;;;;;;5.80;74.85;97040.98;105654;1262;77175;-25
2023/01/17 09:45:49;;;;;;;12.20;8.20;;;;;;;5.64;75.38;97042.80;105398;1254;75135;-24
2023/01/17 09:48:22;;;;;;;9.10;6.20;;;;;;;5.75;75.79;97047.67;105539;1254;63389;-24
2023/01/17 09:51:06;;;;;;;15.30;8.90;;;;;;;6.24;73.98;97049.51;105530;1263;62779;-23
2023/01/17 09:53:33;;;;;;;;;;;;;;;6.34;73.18;97054.06;105690;1260;75181;-24
2023/01/17 09:56:05;;;;;;;14.50;8.90;;;;;;;6.21;73.48;97049.41;105817;1254;76685;-24
2023/01/17 09:58:35;;;;;;;10.30;8.60;;;;;;;6.03;73.96;97043.70;105586;1260;75366;-25
2023/01/17 10:01:16;;;;;;;16.50;10.50;;;;;;;5.80;74.44;97050.80;105776;1257;62831;-25
2023/01/17 10:03:49;;;;;;;10.40;6.70;;;;;;;5.59;75.64;97045.71;105661;1260;61534;-24
2023/01/17 10:06:21;;;;;;;10.70;7.40;;;;;;;5.88;75.18;97045.92;105656;1258;76603;-24
2023/01/17 10:09:15;;;;;;;13.70;9.30;;;;;;;6.07;74.20;97037.57;105585;1261;77297;-25
2023/01/17 10:12:00;;;;;;;10.00;6.90;;;;;;;6.01;74.36;97037.62;105612;1255;75182;-25
2023/01/17 10:14:33;;;;;;;17.40;8.90;;;;;;;5.83;74.91;97038.14;105625;1260;62810;-25
2023/01/17 10:17:41;;;;;;;15.80;8.60;;;;;;;5.65;75.75;97035.33;105662;1257;61621;-25
2023/01/17 10:20:55;;;;;;;14.10;9.60;;;;;;;5.56;76.12;97026.13;105647;1263;75242;-24
2023/01/17 10:23:47;;;;;;;15.10;7.50;;;;;;;6.05;75.31;97032.16;105475;1254;75854;-24
2023/01/17 10:26:21;;;;;;;12.10;7.90;;;;;;;6.18;74.42;97036.47;105615;1259;75239;-24
2023/01/17 10:28:53;;;;;;;15.40;9.20;;;;;;;6.01;74.52;97027.31;105624;1261;61958;-24
2023/01/17 10:31:24;;;;;;;11.10;7.40;;;;;;;5.81;75.15;97026.38;105666;1254;61661;-25
2023/01/17 10:33:52;;;;;;;14.40;8.50;;;;;;;5.61;75.88;97022.63;105604;1254;75553;-25
2023/01/17 10:36:21;;;;;;;16.10;9.10;;;;;;;5.84;76.10;97021.31;105709;1260;76588;-25
2023/01/17 10:38:53;;;;;;;13.90;8.40;;;;;;;6.28;74.47;97018.75;105536;1257;75041;-24
2023/01/17 10:41:25;;;;;;;13.70;9.30;;;;;;;6.27;74.15;97023.85;105623;1254;61441;-25
2023/01/17 10:44:17;;;;;;;13.70;9.10;;;;;;;6.10;74.62;97025.33;105650;1257;62908;-26
2023/01/17 10:47:11;;;;;;;14.20;9.50;;;;;;;5.79;75.30;97025.35;105836;1254;76376;-24
2023/01/17 10:49:43;;;;;;;16.20;9.10;;;;;;;5.53;76.48;97024.18;105747;1255;75490;-23
2023/01/17 10:52:35;;;;;;;11.40;9.00;;;;;;;5.73;76.62;97024.79;105614;1259;74825;-24
2023/01/17 10:55:21;;;;;;;13.60;9.20;;;;;;;6.00;75.40;97022.46;105662;1257;61638;-24
2023/01/17 10:57:48;;;;;;;14.80;7.80;;;;;;;5.85;75.64;97016.05;105585;1254;61495;-24
2023/01/17 11:00:59;;;;;;;15.30;9.20;;;;;;;5.70;76.27;97023.14;105813;1258;75241;-24
2023/01/17 11:03:27;;;;;;;14.70;7.90;;;;;;;5.48;77.02;97028.08;105273;1254;75825;-24
2023/01/17 11:06:15;;;;;;;12.70;8.30;;;;;;;5.74;77.08;97028.48;105572;1255;73675;-24
2023/01/17 11:08:58;;;;;;;16.50;10.10;;;;;;;5.94;76.03;97026.44;105666;1255;62710;-24
2023/01/17 11:11:30;;;;;;;12.30;8.50;;;;;;;5.82;76.36;97026.34;105522;1255;61846;-24
2023/01/17 11:14:06;;;;;;;14.70;8.60;;;;;;;5.61;77.21;97032.92;105527;1260;76014;-24
2023/01/17 11:16:36;;;;;;;14.00;8.70;;;;;;;5.37;78.28;97030.09;105609;1260;75662;-24
2023/01/17 11:19:09;;;;;;;13.30;8.40;;;;;;;5.67;78.25;97035.51;105712;1257;73912;-24
2023/01/17 11:21:37;;;;;;;16.00;10.00;;;;;;;5.96;77.23;97035.86;105640;1253;62805;-24
2023/01/17 11:24:11;;;;;;;14.90;9.00;;;;;;;5.84;77.42;97037.18;105481;1254;61164;-24
2023/01/17 11:26:45;;;;;;;14.30;9.10;;;;;;;5.60;78.18;97037.98;105670;1254;76323;-24
2023/01/17 11:29:25;;;;;;;16.20;9.30;;;;;;;5.38;79.31;97041.77;105528;1255;76024;-24
2023/01/17 11:31:55;;;;;;;14.60;8.60;;;;;;;5.58;79.71;97041.17;105541;1261;75090;-24
2023/01/17 11:34:23;;;;;;;10.90;7.30;;;;;;;5.77;79.09;97040.56;105595;1257;63149;-24
2023/01/17 11:37:29;;;;;;;17.40;10.00;;;;;;;5.65;79.52;97038.75;105394;1257;62490;-25
2023/01/17 11:40:21;;;;;;;14.20;9.40;;;;;;;5.36;80.80;97035.25;105071;1263;75686;-25
2023/01/17 11:42:59;;;;;;;16.90;10.60;;;;;;;5.30;81.68;97032.12;105079;1265;75920;-24
2023/01/17 11:45:27;;;;;;;13.90;8.50;;;;;;;5.63;80.79;97033.22;105240;1261;75204;-25
2023/01/17 11:48:03;;;;;;;16.10;10.90;;;;;;;5.63;80.60;97035.52;105160;1260;62886;-27
2023/01/17 11:50:31;;;;;;;18.30;11.00;;;;;;;5.45;81.11;97035.63;105264;1266;61618;-28
2023/01/17 11:53:13;;;;;;;14.90;8.80;;;;;;;5.19;82.23;97033.69;105362;1261;76266;-26
2023/01/17 11:55:52;;;;;;;16.20;10.70;;;;;;;5.45;82.33;97028.31;105112;1268;77052;-25
2023/01/17 11:58:19;;;;;;;17.70;9.60;;;;;;;5.85;80.84;97028.13;105162;1261;74122;-26
2023/01/17 12:00:53;;;;;;;16.40;10.10;;;;;;;5.80;80.55;97023.09;105220;1261;61794;-24
2023/01/17 12:03:35;;;;;;;15.60;10.60;;;;;;;5.57;81.13;97023.10;105274;1261;61165;-24
2023/01/17 12:07:01;;;;;;;16.10;7.70;;;;;;;5.30;82.01;97017.05;105041;1267;75498;-24
2023/01/17 12:09:42;;;;;;;16.90;9.20;;;;;;;5.56;82.47;97011.48;104877;1261;76584;-24
2023/01/17 12:15:14;;;;;;;18.00;10.60;;;;;;;5.79;81.03;96991.83;105510;1257;62859;-23
2023/01/17 12:17:54;;;;;;;15.50;10.60;;;;;;;5.54;81.56;96995.71;105591;1254;61620;-24
2023/01/17 12:20:48;;;;;;;14.60;7.70;;;;;;;5.23;82.83;96991.13;105489;1260;74961;-23
2023/01/17 12:23:39;;;;;;;18.30;10.00;;;;;;;5.51;83.11;96992.20;105627;1259;76818;-22
2023/01/17 12:26:10;;;;;;;18.80;11.50;;;;;;;5.85;82.04;96985.90;105841;1257;74227;-22
2023/01/17 12:28:53;;;;;;;18.20;12.40;;;;;;;5.79;81.75;96981.49;105673;1257;61922;-22
2023/01/17 12:31:33;;;;;;;18.70;13.00;;;;;;;5.58;82.22;96977.95;105673;1257;61109;-22
2023/01/17 12:34:18;;;;;;;21.20;12.30;;;;;;;5.34;82.84;96978.31;105627;1258;76245;-22
2023/01/17 12:36:46;;;;;;;22.20;12.90;;;;;;;5.43;83.73;96977.42;105638;1260;74810;-22
2023/01/17 12:39:15;;;;;;;22.70;13.80;;;;;;;5.95;82.44;96974.18;105658;1257;75158;-22
2023/01/17 12:42:17;;;;;;;14.30;9.50;;;;;;;6.01;81.68;96973.54;105619;1254;61571;-22
2023/01/17 12:45:25;;;;;;;17.90;11.40;;;;;;;5.81;81.80;96974.77;105390;1254;63013;-23
2023/01/17 12:47:57;;;;;;;19.30;12.10;;;;;;;5.49;82.60;96976.02;105563;1261;75257;-23
2023/01/17 12:50:40;;;;;;;16.10;10.80;;;;;;;5.38;83.56;96980.52;105591;1254;76463;-23
2023/01/17 12:53:28;;;;;;;15.00;10.30;;;;;;;5.85;83.03;96984.35;105563;1254;75197;-24
2023/01/17 12:56:00;;;;;;;17.80;10.30;;;;;;;5.93;82.25;96985.35;105646;1254;61815;-23
2023/01/17 12:58:33;;;;;;;17.80;11.90;;;;;;;5.75;82.33;96983.10;105665;1260;62507;-23
2023/01/17 13:01:07;;;;;;;18.80;12.00;;;;;;;5.48;83.08;96978.87;105561;1254;76354;-23
2023/01/17 13:04:06;;;;;;;11.80;8.00;;;;;;;5.29;83.89;96974.48;105492;1253;76756;-23
2023/01/17 13:06:49;;;;;;;15.70;9.20;;;;;;;5.66;83.67;96964.97;105574;1257;74923;-23
2023/01/17 13:09:18;;;;;;;15.20;9.80;;;;;;;5.81;82.74;96967.50;105571;1254;62813;-23
2023/01/17 13:11:50;;;;;;;18.90;10.80;;;;;;;5.69;82.69;96967.31;105632;1261;62533;-22
2023/01/17 13:14:17;;;;;;;17.30;11.00;;;;;;;5.43;83.42;96958.20;105656;1254;76700;-22
2023/01/17 13:16:49;;;;;;;12.80;9.20;;;;;;;5.30;84.50;96959.56;105651;1254;75786;-23